Pagina principale
METAR-TAF:

METAR-TAF

Aeroporti :

Kano, Nigeria

latitudine: 12-03N, longitudine: 008-32E, altezza: 476 m

Osservazione

Il bollettino è stato emesso 51 minuti fa, alle 13:00 UTC
Vento 6 kt da nord/nord-est
Temperature 31°C
Umidità 17%
Pressione 1015 hPa
Visibilità 10 km o più
nessuna nube inferiore a 1500 m e nessun cumulonembo

METAR: DNKN 111300Z 03006KT CAVOK 31/03 Q1015 NOSIG

Ora: 14:51 (13:51 UTC)

Previsione

Il bollettino è stato emesso 2 ore e 51 minuti fa, alle 11:00 UTC
Previsione valida dal 11 alle 12 UTC al 12 alle 18 UTC
Vento 10 kt da est/nord-est
Visibilità 10 km o più
nessuna nube inferiore a 1500 m e nessun cumulonembo
Temporaneamente
dal 11 alle 18 UTC al 11 alle 24 UTC
Vento 2 kt da direzioni variabili

TAF: DNKN 111100Z 1112/1218 06010KT CAVOK TEMPO 1118/1124 VRB02KT

Osservazioni e previsioni meteorologiche di più di 4000 aeroporti (messaggi METAR e TAF).

Le stazioni disponibili sono rappresentate dai dischi gialli e rossi sulla carta.

Puntare il mouse per vedere il nome della stazione.

Clicca sopra per visualizzare le osservazioni e previsioni meteorologiche.

Per cambiare la mappa : fare clic sui pulsanti verdi con una croce nera per ingrandire, il pulsante verde con un trattino per diminuire, o sulla freccia verde per le mappe adiacenti.


METAR-TAF: